Time;durP1;ratioP1;P1;durP2;ratioP2;P2;SDS_P1;SDS_P2;PMS_P1;PMS_P2;Temp;Humidity;BMP_temperature;BMP_pressure;BME280_temperature;BME280_humidity;BME280_pressure;Samples;Min_cycle;Max_cycle;Signal;HPM_P1;HPM_P2
2022/11/30 05:03:23;;;;;;;18.90;9.30;;;;;;;3.12;100.00;101072.41;5311193;31;20138;-85
2022/11/30 05:06:29;;;;;;;17.45;9.23;;;;;;;3.13;100.00;101070.59;5344770;33;33347;-85
2022/11/30 05:09:31;;;;;;;18.00;8.52;;;;;;;3.17;100.00;101069.44;5355658;33;35198;-85
2022/11/30 05:12:34;;;;;;;17.80;9.13;;;;;;;3.12;100.00;101072.41;5355868;33;34450;-85
2022/11/30 05:15:37;;;;;;;15.43;8.40;;;;;;;3.16;100.00;101073.06;5344813;33;33700;-85
2022/11/30 05:18:40;;;;;;;19.75;9.70;;;;;;;3.27;100.00;101078.41;5344474;33;33597;-86
2022/11/30 05:21:43;;;;;;;18.10;9.20;;;;;;;3.31;100.00;101074.59;5344165;33;33814;-85
2022/11/30 05:24:47;;;;;;;18.00;9.10;;;;;;;3.21;100.00;101081.53;5331425;33;32642;-86
2022/11/30 05:27:50;;;;;;;19.67;8.80;;;;;;;3.24;100.00;101078.66;5344186;33;33608;-85
2022/11/30 05:30:53;;;;;;;17.27;8.55;;;;;;;3.24;100.00;101091.97;5345261;33;33480;-86
2022/11/30 05:33:55;;;;;;;15.32;8.93;;;;;;;3.23;100.00;101087.59;5344731;33;34239;-85
2022/11/30 05:36:59;;;;;;;13.70;7.90;;;;;;;3.28;100.00;101089.94;5343911;33;33462;-85
2022/11/30 05:40:01;;;;;;;15.85;8.57;;;;;;;3.27;100.00;101093.53;5346737;33;35007;-85
2022/11/30 05:43:05;;;;;;;17.65;9.20;;;;;;;3.22;100.00;101093.91;5346136;33;33977;-85
2022/11/30 05:46:08;;;;;;;17.25;8.43;;;;;;;3.23;100.00;101092.09;5330143;33;32498;-85
2022/11/30 05:49:11;;;;;;;15.43;8.27;;;;;;;3.25;100.00;101095.50;5331018;33;33165;-85
2022/11/30 05:52:14;;;;;;;17.27;8.65;;;;;;;3.29;100.00;101095.13;5343825;33;34822;-85
2022/11/30 05:55:16;;;;;;;18.87;8.55;;;;;;;3.31;100.00;101100.34;5345863;33;33149;-85
2022/11/30 05:58:19;;;;;;;18.12;9.00;;;;;;;3.43;100.00;101096.78;5347580;33;34280;-85
2022/11/30 06:01:27;;;;;;;16.37;8.32;;;;;;;3.37;100.00;101092.75;5345511;33;32994;-85
2022/11/30 06:04:32;;;;;;;15.90;8.25;;;;;;;3.46;99.88;101093.03;5346816;33;34502;-85
2022/11/30 06:07:35;;;;;;;15.93;7.70;;;;;;;3.41;99.72;101088.91;5349216;33;34377;-85
2022/11/30 06:10:38;;;;;;;19.77;7.62;;;;;;;3.41;100.00;101088.91;5347712;33;33733;-85
2022/11/30 06:13:41;;;;;;;14.73;8.10;;;;;;;3.47;99.36;101094.72;5357305;33;35219;-85
2022/11/30 06:16:44;;;;;;;18.75;7.65;;;;;;;3.40;100.00;101097.84;5356267;33;33215;-86
2022/11/30 06:19:46;;;;;;;17.05;8.70;;;;;;;3.38;98.87;101091.78;5341473;33;33259;-86
2022/11/30 06:22:49;;;;;;;13.38;7.65;;;;;;;3.40;98.66;101097.84;5343874;33;33961;-86
2022/11/30 06:25:52;;;;;;;14.68;8.23;;;;;;;3.47;99.06;101102.72;5343780;33;33408;-86
2022/11/30 06:28:54;;;;;;;16.77;8.13;;;;;;;3.53;98.77;101107.59;5344060;33;33490;-86
2022/11/30 06:31:57;;;;;;;14.93;7.55;;;;;;;3.54;97.50;101117.25;5344539;33;34852;-86
2022/11/30 06:35:00;;;;;;;15.80;8.25;;;;;;;3.51;97.86;101106.84;5342581;33;31697;-86
2022/11/30 06:38:03;;;;;;;16.42;7.95;;;;;;;3.59;97.07;101117.78;5344118;33;34189;-86
2022/11/30 06:41:08;;;;;;;17.37;8.20;;;;;;;3.55;97.34;101125.16;5343455;33;33466;-86
2022/11/30 06:44:11;;;;;;;14.63;7.87;;;;;;;3.56;98.88;101133.97;5343603;33;33594;-85
2022/11/30 06:47:13;;;;;;;15.00;7.93;;;;;;;3.58;97.37;101129.41;5344574;33;34056;-86
2022/11/30 06:50:16;;;;;;;17.00;8.43;;;;;;;3.61;96.29;101130.00;5330070;33;32988;-86
2022/11/30 06:53:19;;;;;;;16.45;8.10;;;;;;;3.70;95.67;101124.97;5341594;33;33058;-86
2022/11/30 06:56:21;;;;;;;14.20;7.75;;;;;;;3.81;94.41;101127.69;5342681;33;34083;-91
2022/11/30 06:59:24;;;;;;;14.82;7.80;;;;;;;3.80;94.33;101132.16;5334336;33;301593;-90
2022/11/30 07:02:27;;;;;;;17.10;8.52;;;;;;;3.89;94.30;101127.06;5342187;33;33823;-90
2022/11/30 07:05:33;;;;;;;19.73;8.82;;;;;;;3.89;94.76;101125.28;5342968;33;33608;-90
2022/11/30 07:08:36;;;;;;;16.60;8.10;;;;;;;3.92;94.91;101121.50;5329380;33;32729;-86
2022/11/30 07:11:39;;;;;;;14.93;8.43;;;;;;;4.08;92.98;101119.41;5332092;33;34017;-86
2022/11/30 07:14:42;;;;;;;15.95;8.15;;;;;;;4.10;92.45;101128.13;5342658;33;34000;-85
2022/11/30 07:17:45;;;;;;;18.73;7.90;;;;;;;4.05;93.32;101127.63;5330863;33;31735;-86
2022/11/30 07:20:47;;;;;;;14.40;8.05;;;;;;;4.15;92.94;101125.94;5342730;33;34516;-85
2022/11/30 07:27:11;;;;;;;16.92;8.30;;;;;;;4.15;91.40;101128.59;5341380;33;34756;-85
2022/11/30 07:30:14;;;;;;;17.37;8.52;;;;;;;4.21;91.07;101127.28;5340212;33;31890;-86
2022/11/30 07:33:17;;;;;;;17.25;8.02;;;;;;;4.20;90.80;101130.94;5342638;33;33508;-86
2022/11/30 07:36:22;;;;;;;16.67;7.68;;;;;;;4.24;90.41;101122.59;5342553;33;34113;-85
2022/11/30 07:39:24;;;;;;;15.77;7.32;;;;;;;4.32;89.73;101122.81;5328517;33;31800;-85
2022/11/30 07:42:27;;;;;;;14.93;8.07;;;;;;;4.23;89.51;101117.34;5341715;33;33532;-85
2022/11/30 07:45:30;;;;;;;17.17;6.95;;;;;;;4.40;89.12;101118.72;5342760;33;33758;-85
2022/11/30 07:48:34;;;;;;;16.73;8.27;;;;;;;4.41;88.99;101123.06;5341676;33;33919;-85
2022/11/30 07:51:37;;;;;;;15.50;7.30;;;;;;;4.40;88.54;101116.91;5343310;33;33766;-85
2022/11/30 07:54:39;;;;;;;15.98;7.78;;;;;;;4.55;87.00;101125.50;5346303;33;33781;-85
2022/11/30 07:57:42;;;;;;;18.15;8.00;;;;;;;4.55;87.20;101121.03;5341252;33;33976;-85
2022/11/30 08:00:45;;;;;;;16.70;8.50;;;;;;;4.54;87.14;101119.34;5331873;33;31733;-85
2022/11/30 08:03:50;;;;;;;15.25;7.62;;;;;;;4.58;86.49;101125.28;5332527;33;32683;-86
2022/11/30 08:06:53;;;;;;;15.65;7.90;;;;;;;4.63;86.18;101130.25;5343290;33;33227;-85
2022/11/30 08:09:56;;;;;;;18.00;8.10;;;;;;;4.69;85.27;101122.63;5348764;33;33733;-85
2022/11/30 08:12:59;;;;;;;14.82;8.30;;;;;;;4.63;85.93;101115.09;5344765;33;34554;-85
2022/11/30 08:16:04;;;;;;;17.95;8.13;;;;;;;4.52;86.20;101126.59;5339751;33;33627;-86
2022/11/30 08:19:07;;;;;;;15.02;7.97;;;;;;;4.55;86.36;101134.34;5327663;33;33000;-86
2022/11/30 08:22:10;;;;;;;17.85;8.55;;;;;;;4.62;86.13;101126.75;5343063;33;33278;-86
2022/11/30 08:25:12;;;;;;;18.50;8.02;;;;;;;4.71;85.51;101127.81;5343635;33;33953;-86
2022/11/30 08:28:15;;;;;;;18.65;8.18;;;;;;;4.68;86.26;101120.06;5350589;33;33590;-86
2022/11/30 08:31:24;;;;;;;17.35;7.43;;;;;;;4.84;84.94;101120.53;5342461;33;31756;-86
2022/11/30 08:34:27;;;;;;;16.27;7.37;;;;;;;4.81;84.67;101126.13;5356494;33;34859;-86
2022/11/30 08:37:29;;;;;;;14.23;7.45;;;;;;;4.92;83.54;101117.28;5356964;33;33821;-86
2022/11/30 08:40:32;;;;;;;15.57;8.02;;;;;;;4.90;83.52;101119.22;5357375;33;33996;-86
2022/11/30 08:43:35;;;;;;;12.02;6.60;;;;;;;4.89;83.48;101110.34;5348720;33;33713;-86
2022/11/30 08:46:38;;;;;;;13.40;7.22;;;;;;;5.08;83.33;101109.72;5342858;33;33117;-86
2022/11/30 08:49:56;;;;;;;13.90;7.12;;;;;;;4.99;83.21;101113.12;5342132;33;33478;-90
2022/11/30 08:52:59;;;;;;;13.23;7.10;;;;;;;5.19;81.96;101115.03;5341970;33;33376;-90
2022/11/30 08:56:22;;;;;;;15.90;6.95;;;;;;;5.20;81.61;101106.03;5348593;33;33653;-86
2022/11/30 08:59:25;;;;;;;15.77;7.30;;;;;;;5.23;81.48;101100.47;5357017;33;34375;-85
2022/11/30 09:02:28;;;;;;;17.50;8.32;;;;;;;5.31;82.50;101107.00;5355314;33;34665;-85
2022/11/30 09:05:31;;;;;;;13.75;7.47;;;;;;;5.34;82.53;101118.25;5355286;33;33412;-84
2022/11/30 09:08:34;;;;;;;11.05;6.78;;;;;;;5.41;82.19;101105.25;5348994;33;33725;-84
2022/11/30 09:11:42;;;;;;;10.52;6.50;;;;;;;5.35;81.11;101108.44;5344606;33;33686;-86
2022/11/30 09:14:46;;;;;;;12.30;6.35;;;;;;;5.23;80.67;101111.16;5343431;33;32910;-85
2022/11/30 09:17:59;;;;;;;15.73;7.70;;;;;;;5.41;81.48;101106.12;5344794;33;33162;-85
2022/11/30 09:21:05;;;;;;;14.30;7.18;;;;;;;5.55;80.82;101106.78;5348313;33;33809;-86
2022/11/30 09:24:09;;;;;;;13.98;7.18;;;;;;;5.64;80.70;101104.19;5349813;33;34406;-86
2022/11/30 09:27:11;;;;;;;15.57;7.20;;;;;;;5.75;80.60;101107.81;5354962;33;33163;-85
2022/11/30 09:30:14;;;;;;;13.65;7.40;;;;;;;5.72;79.11;101108.91;5350552;33;33351;-83
2022/11/30 09:33:17;;;;;;;14.85;7.35;;;;;;;5.79;79.67;101111.91;5353289;33;33118;-85
2022/11/30 09:36:21;;;;;;;16.25;8.45;;;;;;;5.81;79.06;101113.47;5332491;33;32865;-85
2022/11/30 09:39:23;;;;;;;13.65;7.80;;;;;;;5.94;79.40;101107.13;5348799;33;34960;-84
2022/11/30 09:42:44;;;;;;;12.45;7.10;;;;;;;6.03;79.42;101109.88;5351699;33;34309;-84
2022/11/30 09:45:55;;;;;;;14.50;7.47;;;;;;;6.21;77.91;101103.94;5350304;33;33016;-84
2022/11/30 09:49:06;;;;;;;14.00;7.05;;;;;;;6.49;76.85;101107.72;5354585;33;33501;-84
2022/11/30 09:52:16;;;;;;;15.13;7.60;;;;;;;6.57;75.76;101108.75;5346021;33;34114;-85
2022/11/30 09:55:31;;;;;;;12.23;6.78;;;;;;;6.55;75.92;101110.75;5350564;33;35857;-85
2022/11/30 09:58:52;;;;;;;17.75;7.57;;;;;;;6.76;75.08;101110.69;5348533;33;33480;-84
2022/11/30 10:02:01;;;;;;;14.85;7.22;;;;;;;6.67;75.49;101107.94;5347958;33;34359;-86
2022/11/30 10:05:52;;;;;;;13.35;6.90;;;;;;;6.55;75.21;101108.06;5331598;33;33426;-86
2022/11/30 10:09:15;;;;;;;21.67;8.20;;;;;;;6.75;76.17;101102.78;5338294;33;33138;-85
2022/11/30 10:12:27;;;;;;;14.85;7.68;;;;;;;6.77;75.64;101090.13;5344224;33;33396;-85
2022/11/30 10:15:48;;;;;;;12.70;7.45;;;;;;;6.75;75.44;101094.75;5345222;33;33764;-85
2022/11/30 10:19:04;;;;;;;15.93;7.20;;;;;;;6.80;75.85;101090.69;5333226;33;33316;-85
2022/11/30 10:22:26;;;;;;;16.85;8.40;;;;;;;7.09;74.36;101095.28;5347266;33;33368;-85
2022/11/30 10:25:54;;;;;;;14.57;8.05;;;;;;;6.85;75.45;101092.13;5344667;33;33164;-84
2022/11/30 10:29:26;;;;;;;11.52;6.80;;;;;;;6.91;74.81;101084.37;5343423;33;33978;-86
2022/11/30 10:32:37;;;;;;;16.05;7.37;;;;;;;6.94;75.34;101085.94;5340772;33;32023;-85
2022/11/30 10:35:43;;;;;;;13.52;6.72;;;;;;;7.06;72.30;101084.00;5343538;33;33202;-85
2022/11/30 10:38:51;;;;;;;13.13;6.00;;;;;;;6.96;72.50;101073.25;5343516;33;33081;-86
2022/11/30 10:42:10;;;;;;;14.93;6.15;;;;;;;7.04;71.27;101066.22;5342987;33;33630;-85
2022/11/30 10:45:18;;;;;;;11.50;6.37;;;;;;;7.11;71.63;101063.00;5342553;33;35014;-85
2022/11/30 10:48:28;;;;;;;12.05;6.18;;;;;;;7.12;71.56;101060.19;5341125;33;33279;-84
2022/11/30 10:51:38;;;;;;;11.75;6.30;;;;;;;6.95;71.93;101063.53;5328875;33;32608;-85
2022/11/30 10:54:40;;;;;;;11.45;5.65;;;;;;;7.13;70.65;101066.38;5345255;33;34301;-84
2022/11/30 10:57:45;;;;;;;12.32;6.70;;;;;;;7.10;71.73;101067.50;5342479;33;34245;-83
2022/11/30 11:01:02;;;;;;;10.80;6.30;;;;;;;7.25;70.23;101062.59;5343904;33;33601;-84
2022/11/30 11:04:04;;;;;;;11.45;6.15;;;;;;;7.24;70.05;101063.59;5342851;33;34273;-85
2022/11/30 11:07:09;;;;;;;10.82;6.12;;;;;;;7.44;70.85;101053.75;5328731;33;31809;-84
2022/11/30 11:10:15;;;;;;;9.02;6.22;;;;;;;7.61;70.06;101053.03;5342688;33;33244;-84
2022/11/30 11:13:34;;;;;;;10.93;5.87;;;;;;;7.68;69.70;101051.47;5342443;33;34160;-84
2022/11/30 11:16:51;;;;;;;12.10;6.20;;;;;;;7.92;68.02;101064.41;5345845;33;35414;-85
2022/11/30 11:19:53;;;;;;;10.68;6.35;;;;;;;7.73;68.45;101048.38;5342233;33;34096;-85
2022/11/30 11:22:56;;;;;;;13.45;6.25;;;;;;;7.68;69.33;101046.09;5342259;33;34231;-85
2022/11/30 11:25:59;;;;;;;11.12;6.30;;;;;;;7.69;69.18;101054.97;5342279;33;33897;-85
2022/11/30 11:29:02;;;;;;;12.55;6.82;;;;;;;7.73;70.28;101046.53;5341838;33;35571;-85
2022/11/30 11:32:23;;;;;;;9.63;6.07;;;;;;;7.62;69.47;101045.84;5343022;33;33558;-85
2022/11/30 11:36:04;;;;;;;13.13;6.18;;;;;;;7.52;70.65;101050.34;5353505;33;33451;-84
2022/11/30 11:39:24;;;;;;;10.02;6.12;;;;;;;7.61;71.00;101045.00;5323810;33;33279;-85
2022/11/30 11:42:35;;;;;;;15.50;6.68;;;;;;;7.66;70.50;101057.94;5359312;33;34943;-85
2022/11/30 11:45:38;;;;;;;12.45;6.25;;;;;;;7.62;69.62;101053.87;5348101;33;33708;-85
2022/11/30 11:48:56;;;;;;;10.23;5.85;;;;;;;7.77;69.47;101051.59;5347557;33;33429;-85
2022/11/30 11:52:05;;;;;;;14.23;6.95;;;;;;;7.91;70.08;101053.84;5328371;33;32048;-85
2022/11/30 11:55:15;;;;;;;14.43;6.80;;;;;;;8.02;69.35;101058.19;5342383;33;33934;-85
2022/11/30 11:58:27;;;;;;;13.35;6.75;;;;;;;7.95;70.35;101052.53;5341499;33;33405;-89
2022/11/30 12:01:47;;;;;;;12.07;6.40;;;;;;;8.28;68.86;101047.69;5349787;33;34334;-85
2022/11/30 12:04:58;;;;;;;13.40;6.40;;;;;;;8.34;67.85;101047.09;5344467;33;34480;-86
2022/11/30 12:08:33;;;;;;;13.43;6.93;;;;;;;8.72;67.56;101051.47;5343166;33;33736;-85
2022/11/30 12:11:47;;;;;;;13.73;6.97;;;;;;;8.75;67.47;101053.84;5343098;33;34346;-85
2022/11/30 12:14:50;;;;;;;11.80;6.60;;;;;;;8.85;67.79;101051.13;5327936;33;33713;-86
2022/11/30 12:18:05;;;;;;;14.10;7.62;;;;;;;8.74;68.00;101046.78;5341718;33;33344;-85
2022/11/30 12:21:46;;;;;;;13.52;6.72;;;;;;;8.52;68.61;101047.19;5330467;33;32234;-85
2022/11/30 12:25:19;;;;;;;10.73;6.62;;;;;;;8.27;68.48;101036.09;5330546;33;33452;-85
2022/11/30 12:28:43;;;;;;;13.57;6.82;;;;;;;8.18;69.53;101036.97;5328115;33;32393;-86
2022/11/30 12:32:10;;;;;;;12.23;6.55;;;;;;;8.23;69.46;101045.44;5356941;33;33860;-85
2022/11/30 12:35:45;;;;;;;14.02;7.05;;;;;;;8.22;69.71;101038.38;5342399;33;33891;-85
2022/11/30 12:38:53;;;;;;;9.55;6.50;;;;;;;8.09;69.64;101038.69;5341378;33;34419;-85
2022/11/30 12:42:01;;;;;;;14.50;7.32;;;;;;;8.06;70.42;101035.47;5341635;33;33372;-85
2022/11/30 12:45:25;;;;;;;12.80;6.62;;;;;;;8.00;70.72;101026.16;5329106;33;32986;-85
2022/11/30 12:48:45;;;;;;;12.65;6.70;;;;;;;8.08;70.16;101033.47;5329475;33;32616;-85
2022/11/30 12:52:13;;;;;;;10.13;6.00;;;;;;;8.17;69.93;101033.44;5341413;33;33386;-85
2022/11/30 12:55:49;;;;;;;11.50;6.12;;;;;;;9.09;67.12;101029.03;5353154;33;33645;-86
2022/11/30 12:59:13;;;;;;;13.62;5.68;;;;;;;9.19;65.59;101031.69;5359039;33;33186;-85
2022/11/30 13:02:53;;;;;;;10.77;6.40;;;;;;;9.16;66.35;101032.81;5359290;33;33129;-85
2022/11/30 13:05:58;;;;;;;;;;;;;;;9.16;65.99;101032.00;5346724;33;33272;-84
2022/11/30 13:09:23;;;;;;;12.90;6.43;;;;;;;8.68;67.80;101025.06;5357463;33;33051;-85
2022/11/30 13:12:35;;;;;;;9.82;6.47;;;;;;;8.71;68.41;101028.28;5344276;33;33710;-84
2022/11/30 13:15:39;;;;;;;10.48;6.55;;;;;;;8.42;69.48;101019.53;5330526;33;32378;-85
2022/11/30 13:18:42;;;;;;;10.10;5.57;;;;;;;8.14;69.74;101012.28;5330867;33;32100;-85
2022/11/30 13:21:56;;;;;;;11.38;6.20;;;;;;;8.14;71.11;101014.13;5331590;33;31643;-85
2022/11/30 13:25:24;;;;;;;11.27;6.35;;;;;;;7.84;70.98;101021.41;5334331;33;33181;-88
2022/11/30 13:28:47;;;;;;;13.05;5.80;;;;;;;7.90;71.82;101018.16;5333918;33;31681;-85
2022/11/30 13:32:04;;;;;;;12.63;6.12;;;;;;;7.72;72.03;101027.88;5347492;33;33397;-85
2022/11/30 13:35:28;;;;;;;11.90;6.03;;;;;;;7.78;73.01;101024.66;5349709;33;33382;-85
2022/11/30 13:38:32;;;;;;;9.18;4.45;;;;;;;7.89;73.02;101026.31;5343102;33;33570;-85
2022/11/30 13:41:48;;;;;;;4.90;3.53;;;;;;;7.84;71.66;101012.50;5348691;33;33438;-85
2022/11/30 13:44:51;;;;;;;9.32;5.03;;;;;;;7.73;66.94;101017.03;5347374;33;35045;-85
2022/11/30 13:47:56;;;;;;;5.28;4.00;;;;;;;7.57;67.09;101026.66;5337141;33;34857;-85
2022/11/30 13:50:59;;;;;;;7.10;3.70;;;;;;;7.59;66.54;101022.84;5341871;33;33310;-85
2022/11/30 13:54:47;;;;;;;6.05;3.62;;;;;;;7.66;66.93;101029.34;5341675;33;34401;-85
2022/11/30 13:57:50;;;;;;;8.63;3.95;;;;;;;7.30;66.58;101028.22;5341366;33;32966;-88
2022/11/30 14:01:17;;;;;;;6.12;3.92;;;;;;;7.26;68.46;101030.31;5349135;33;34552;-89
2022/11/30 14:04:29;;;;;;;6.55;4.07;;;;;;;7.28;67.80;101035.53;5343345;33;35939;-85
2022/11/30 14:07:34;;;;;;;8.45;4.05;;;;;;;7.18;68.87;101030.19;5343297;33;33010;-85
2022/11/30 14:10:44;;;;;;;9.40;3.87;;;;;;;7.11;66.63;101031.72;5342391;33;33404;-84
2022/11/30 14:13:47;;;;;;;6.78;3.58;;;;;;;7.01;67.79;101029.03;5342434;33;33876;-85
2022/11/30 14:16:50;;;;;;;5.32;3.45;;;;;;;7.01;67.75;101031.69;5342799;33;33849;-84
2022/11/30 14:19:59;;;;;;;5.55;3.58;;;;;;;7.02;66.78;101033.41;5328478;33;32130;-85
2022/11/30 14:23:05;;;;;;;6.25;3.58;;;;;;;6.92;66.77;101032.53;5329430;33;31874;-85
2022/11/30 14:26:14;;;;;;;6.28;3.83;;;;;;;6.84;67.04;101026.19;5342039;33;33136;-85
2022/11/30 14:29:22;;;;;;;9.10;4.40;;;;;;;6.77;67.41;101032.09;5342188;33;34903;-85
2022/11/30 14:32:43;;;;;;;6.60;3.65;;;;;;;6.74;66.79;101034.19;5341907;33;33865;-85
2022/11/30 14:35:53;;;;;;;6.05;3.87;;;;;;;6.66;67.37;101034.03;5342170;33;33407;-86
2022/11/30 14:38:56;;;;;;;6.15;3.55;;;;;;;6.62;67.17;101021.91;5324172;33;31737;-85
2022/11/30 14:42:00;;;;;;;4.62;3.42;;;;;;;6.55;67.16;101030.47;5344672;33;31935;-85
2022/11/30 14:45:12;;;;;;;3.87;3.17;;;;;;;6.56;67.05;101028.66;5353901;33;33889;-85
2022/11/30 14:48:17;;;;;;;8.50;3.58;;;;;;;6.57;67.69;101020.47;5342118;33;34027;-85
2022/11/30 14:51:20;;;;;;;6.12;3.72;;;;;;;6.54;67.84;101023.41;5343058;33;33391;-85
2022/11/30 14:54:43;;;;;;;5.22;3.50;;;;;;;6.55;66.64;101026.94;5345418;33;33523;-85
2022/11/30 14:57:53;;;;;;;6.47;3.53;;;;;;;6.49;66.62;101022.12;5341161;33;33920;-89
2022/11/30 15:00:56;;;;;;;9.00;4.05;;;;;;;6.51;66.62;101022.84;5340921;33;33349;-85
2022/11/30 15:04:06;;;;;;;6.03;4.28;;;;;;;6.44;66.59;101016.37;5342516;33;33433;-85
2022/11/30 15:07:13;;;;;;;6.82;4.28;;;;;;;6.43;66.67;101022.69;5333685;33;32083;-85
2022/11/30 15:10:30;;;;;;;9.60;3.83;;;;;;;6.43;68.46;101018.16;5340563;33;33202;-85
2022/11/30 15:13:38;;;;;;;11.93;4.47;;;;;;;6.36;68.34;101025.06;5328442;33;31805;-85
2022/11/30 15:16:48;;;;;;;9.30;4.62;;;;;;;6.32;67.87;101020.97;5346477;33;33701;-84
2022/11/30 15:19:51;;;;;;;10.18;4.80;;;;;;;6.34;67.21;101013.63;5331773;33;32382;-85
2022/11/30 15:22:57;;;;;;;8.35;4.68;;;;;;;6.32;67.50;101015.63;5344946;33;33476;-85
2022/11/30 15:26:10;;;;;;;9.88;5.12;;;;;;;6.34;67.61;101017.16;5344619;33;35135;-85
2022/11/30 15:29:19;;;;;;;8.35;4.97;;;;;;;6.27;67.40;101018.69;5342404;33;33182;-86
2022/11/30 15:32:23;;;;;;;10.52;4.62;;;;;;;6.20;68.81;101016.66;5340579;33;33456;-84
2022/11/30 15:35:26;;;;;;;9.60;4.75;;;;;;;6.15;68.70;101027.78;5330845;33;32045;-85
2022/11/30 15:38:50;;;;;;;7.85;4.90;;;;;;;6.12;69.99;101012.84;5340406;33;33632;-85
2022/11/30 15:41:55;;;;;;;10.20;4.50;;;;;;;6.08;69.75;101013.22;5328234;33;31671;-85
2022/11/30 15:45:20;;;;;;;8.85;4.87;;;;;;;6.06;69.90;101016.06;5342311;33;33399;-85
2022/11/30 15:48:38;;;;;;;10.48;5.40;;;;;;;6.04;70.09;101023.34;5337664;33;34905;-84
2022/11/30 15:51:44;;;;;;;9.88;5.22;;;;;;;6.02;71.13;101024.47;5329804;33;33351;-85
2022/11/30 15:54:54;;;;;;;11.27;6.20;;;;;;;5.99;72.79;101027.41;5341271;33;34207;-85
2022/11/30 15:58:00;;;;;;;16.08;6.00;;;;;;;6.02;75.46;101027.97;5351454;33;34154;-85
2022/11/30 16:01:07;;;;;;;12.68;6.68;;;;;;;5.97;76.20;101026.69;5347792;33;34352;-85
2022/11/30 16:04:11;;;;;;;14.65;7.95;;;;;;;5.94;78.68;101022.47;5346929;33;33084;-85
2022/11/30 16:07:16;;;;;;;17.45;7.57;;;;;;;5.93;79.40;101026.09;5337455;33;32181;-86
2022/11/30 16:10:34;;;;;;;13.70;7.43;;;;;;;5.86;81.29;101024.91;5331896;33;33283;-85
2022/11/30 16:13:39;;;;;;;15.20;8.70;;;;;;;5.79;82.76;101011.25;5329506;33;31730;-86
2022/11/30 16:16:43;;;;;;;15.63;7.87;;;;;;;5.86;82.21;101016.91;5328974;33;32069;-85
2022/11/30 16:19:47;;;;;;;16.48;7.93;;;;;;;5.85;83.32;101009.84;5342084;33;34093;-86
2022/11/30 16:22:51;;;;;;;14.18;7.55;;;;;;;5.83;83.16;101011.81;5341851;33;34432;-85
2022/11/30 16:25:54;;;;;;;16.50;7.57;;;;;;;5.80;82.59;101020.09;5328608;33;32710;-85
2022/11/30 16:28:59;;;;;;;13.43;7.37;;;;;;;5.76;83.16;101015.97;5328104;33;33472;-85
2022/11/30 16:32:01;;;;;;;14.98;7.78;;;;;;;5.78;84.66;101022.03;5327997;33;33864;-85
2022/11/30 16:35:24;;;;;;;15.40;8.30;;;;;;;5.68;85.05;101013.97;5336215;33;33482;-85
2022/11/30 16:38:27;;;;;;;16.55;7.70;;;;;;;5.62;86.19;101017.16;5328153;33;33345;-85
2022/11/30 16:41:30;;;;;;;16.20;8.50;;;;;;;5.55;88.25;101022.16;5344177;33;33402;-85
2022/11/30 16:44:32;;;;;;;14.55;8.20;;;;;;;5.49;90.37;101020.00;5331986;33;32883;-84
2022/11/30 16:47:35;;;;;;;17.48;9.40;;;;;;;5.46;89.51;101012.25;5356068;33;33470;-85
2022/11/30 16:50:40;;;;;;;18.23;9.88;;;;;;;5.41;89.46;101007.31;5330590;33;31875;-85
2022/11/30 16:53:45;;;;;;;20.58;10.73;;;;;;;5.39;89.21;101011.09;5332270;33;33619;-85
2022/11/30 16:56:47;;;;;;;20.92;10.10;;;;;;;5.37;89.38;101005.03;5330092;33;31948;-85
2022/11/30 16:59:50;;;;;;;23.98;12.48;;;;;;;5.34;88.92;101006.13;5343099;33;33517;-85
2022/11/30 17:02:55;;;;;;;23.50;11.50;;;;;;;5.41;87.20;101017.13;5330030;33;33238;-85
